sensor_id;sensor_type;location;lat;lon;timestamp;pressure;altitude;pressure_sealevel;temperature;humidity
39937;BME280;27803;42.740;23.340;2022-12-10T00:01:36;94880.13;;;9.56;100.00
39937;BME280;27803;42.740;23.340;2022-12-10T00:04:02;94872.13;;;9.44;100.00
39937;BME280;27803;42.740;23.340;2022-12-10T00:06:30;94883.34;;;9.58;100.00
39937;BME280;27803;42.740;23.340;2022-12-10T00:08:56;94900.41;;;9.67;100.00
39937;BME280;27803;42.740;23.340;2022-12-10T00:11:22;94878.28;;;9.76;100.00
39937;BME280;27803;42.740;23.340;2022-12-10T00:13:49;94890.31;;;9.84;100.00
39937;BME280;27803;42.740;23.340;2022-12-10T00:16:18;94869.28;;;9.65;100.00
39937;BME280;27803;42.740;23.340;2022-12-10T00:18:44;94872.50;;;9.61;100.00
39937;BME280;27803;42.740;23.340;2022-12-10T00:21:12;94913.44;;;9.73;100.00
39937;BME280;27803;42.740;23.340;2022-12-10T00:23:39;94881.56;;;9.52;100.00
39937;BME280;27803;42.740;23.340;2022-12-10T00:26:13;94906.22;;;9.75;100.00
39937;BME280;27803;42.740;23.340;2022-12-10T00:28:39;94874.13;;;9.49;100.00
39937;BME280;27803;42.740;23.340;2022-12-10T00:31:08;94861.69;;;9.51;100.00
39937;BME280;27803;42.740;23.340;2022-12-10T00:33:35;94892.19;;;9.50;100.00
39937;BME280;27803;42.740;23.340;2022-12-10T00:36:02;94899.41;;;9.55;100.00
39937;BME280;27803;42.740;23.340;2022-12-10T00:38:28;94900.41;;;9.54;100.00
39937;BME280;27803;42.740;23.340;2022-12-10T00:40:53;94903.03;;;9.40;100.00
39937;BME280;27803;42.740;23.340;2022-12-10T00:43:19;94893.41;;;9.34;100.00
39937;BME280;27803;42.740;23.340;2022-12-10T00:45:44;94905.25;;;9.43;100.00
39937;BME280;27803;42.740;23.340;2022-12-10T00:48:09;94866.13;;;9.17;100.00
39937;BME280;27803;42.740;23.340;2022-12-10T00:50:35;94900.03;;;9.43;100.00
39937;BME280;27803;42.740;23.340;2022-12-10T00:53:00;94868.13;;;9.22;100.00
39937;BME280;27803;42.740;23.340;2022-12-10T00:55:25;94883.38;;;9.44;100.00
39937;BME280;27803;42.740;23.340;2022-12-10T00:57:51;94857.28;;;9.31;100.00
39937;BME280;27803;42.740;23.340;2022-12-10T01:00:16;94889.56;;;9.57;100.00
39937;BME280;27803;42.740;23.340;2022-12-10T01:02:41;94878.16;;;9.44;100.00
39937;BME280;27803;42.740;23.340;2022-12-10T01:05:07;94896.97;;;9.73;100.00
39937;BME280;27803;42.740;23.340;2022-12-10T01:07:32;94895.00;;;9.62;100.00
39937;BME280;27803;42.740;23.340;2022-12-10T01:09:58;94902.19;;;9.73;100.00
39937;BME280;27803;42.740;23.340;2022-12-10T01:12:23;94871.91;;;9.59;100.00
39937;BME280;27803;42.740;23.340;2022-12-10T01:14:48;94894.16;;;9.81;100.00
39937;BME280;27803;42.740;23.340;2022-12-10T01:17:14;94862.25;;;9.66;100.00
39937;BME280;27803;42.740;23.340;2022-12-10T01:19:39;94882.47;;;9.90;100.00
39937;BME280;27803;42.740;23.340;2022-12-10T01:22:05;94881.25;;;9.99;100.00
39937;BME280;27803;42.740;23.340;2022-12-10T01:24:30;94860.75;;;9.96;100.00
39937;BME280;27803;42.740;23.340;2022-12-10T01:26:56;94845.13;;;9.83;100.00
39937;BME280;27803;42.740;23.340;2022-12-10T01:29:22;94853.75;;;9.90;100.00
39937;BME280;27803;42.740;23.340;2022-12-10T01:31:51;94892.44;;;10.13;100.00
39937;BME280;27803;42.740;23.340;2022-12-10T01:34:17;94847.50;;;9.91;100.00
39937;BME280;27803;42.740;23.340;2022-12-10T01:36:44;94872.16;;;10.15;100.00
39937;BME280;27803;42.740;23.340;2022-12-10T01:39:13;94885.41;;;10.14;100.00
39937;BME280;27803;42.740;23.340;2022-12-10T01:41:43;94875.97;;;10.13;100.00
39937;BME280;27803;42.740;23.340;2022-12-10T01:46:39;94849.94;;;9.86;100.00
39937;BME280;27803;42.740;23.340;2022-12-10T01:49:08;94881.47;;;9.91;100.00
39937;BME280;27803;42.740;23.340;2022-12-10T01:51:36;94879.25;;;9.88;100.00
39937;BME280;27803;42.740;23.340;2022-12-10T01:54:05;94852.81;;;9.58;100.00
39937;BME280;27803;42.740;23.340;2022-12-10T01:56:31;94867.69;;;9.58;100.00
39937;BME280;27803;42.740;23.340;2022-12-10T01:59:00;94852.06;;;9.18;100.00
39937;BME280;27803;42.740;23.340;2022-12-10T02:02:00;94872.94;;;9.18;100.00
39937;BME280;27803;42.740;23.340;2022-12-10T02:07:13;94874.34;;;9.14;100.00
39937;BME280;27803;42.740;23.340;2022-12-10T02:09:44;94864.50;;;9.03;100.00
39937;BME280;27803;42.740;23.340;2022-12-10T02:12:15;94823.19;;;8.80;100.00
39937;BME280;27803;42.740;23.340;2022-12-10T02:14:56;94824.41;;;8.64;100.00
39937;BME280;27803;42.740;23.340;2022-12-10T02:17:30;94848.47;;;8.66;100.00
39937;BME280;27803;42.740;23.340;2022-12-10T02:20:05;94857.06;;;8.73;100.00
39937;BME280;27803;42.740;23.340;2022-12-10T02:22:39;94848.06;;;8.82;100.00
39937;BME280;27803;42.740;23.340;2022-12-10T02:25:06;94825.19;;;8.85;100.00
39937;BME280;27803;42.740;23.340;2022-12-10T02:30:17;94789.50;;;8.72;100.00
39937;BME280;27803;42.740;23.340;2022-12-10T02:32:44;94779.06;;;9.05;100.00
39937;BME280;27803;42.740;23.340;2022-12-10T02:35:22;94795.03;;;9.41;100.00
39937;BME280;27803;42.740;23.340;2022-12-10T02:37:54;94818.09;;;9.58;100.00
39937;BME280;27803;42.740;23.340;2022-12-10T02:40:27;94814.25;;;9.67;100.00
39937;BME280;27803;42.740;23.340;2022-12-10T02:42:55;94790.81;;;9.47;100.00
39937;BME280;27803;42.740;23.340;2022-12-10T02:45:23;94783.78;;;9.48;100.00
39937;BME280;27803;42.740;23.340;2022-12-10T02:47:54;94775.38;;;9.45;100.00
39937;BME280;27803;42.740;23.340;2022-12-10T02:50:22;94814.66;;;9.64;100.00
39937;BME280;27803;42.740;23.340;2022-12-10T02:52:48;94806.91;;;9.37;100.00
39937;BME280;27803;42.740;23.340;2022-12-10T02:55:14;94769.78;;;9.22;100.00
39937;BME280;27803;42.740;23.340;2022-12-10T03:00:21;94822.09;;;9.67;100.00
39937;BME280;27803;42.740;23.340;2022-12-10T03:05:38;94778.19;;;9.44;100.00
39937;BME280;27803;42.740;23.340;2022-12-10T03:08:22;94797.41;;;9.63;100.00
39937;BME280;27803;42.740;23.340;2022-12-10T03:11:11;94802.03;;;9.54;100.00
39937;BME280;27803;42.740;23.340;2022-12-10T03:13:52;94796.00;;;9.54;100.00
39937;BME280;27803;42.740;23.340;2022-12-10T03:16:21;94767.31;;;9.47;100.00
39937;BME280;27803;42.740;23.340;2022-12-10T03:18:52;94798.59;;;9.67;100.00
39937;BME280;27803;42.740;23.340;2022-12-10T03:21:20;94791.72;;;9.79;100.00
39937;BME280;27803;42.740;23.340;2022-12-10T03:23:47;94765.44;;;9.74;100.00
39937;BME280;27803;42.740;23.340;2022-12-10T03:26:14;94767.22;;;9.80;100.00
39937;BME280;27803;42.740;23.340;2022-12-10T03:28:46;94779.63;;;9.91;100.00
39937;BME280;27803;42.740;23.340;2022-12-10T03:31:13;94796.53;;;9.82;100.00
39937;BME280;27803;42.740;23.340;2022-12-10T03:33:39;94755.44;;;9.64;100.00
39937;BME280;27803;42.740;23.340;2022-12-10T03:36:06;94791.69;;;9.86;100.00
39937;BME280;27803;42.740;23.340;2022-12-10T03:38:33;94799.16;;;9.75;100.00
39937;BME280;27803;42.740;23.340;2022-12-10T03:40:59;94756.84;;;9.60;100.00
39937;BME280;27803;42.740;23.340;2022-12-10T03:43:24;94784.72;;;9.73;100.00
39937;BME280;27803;42.740;23.340;2022-12-10T03:45:50;94765.72;;;9.53;100.00
39937;BME280;27803;42.740;23.340;2022-12-10T03:48:15;94773.50;;;9.59;100.00
39937;BME280;27803;42.740;23.340;2022-12-10T03:50:40;94733.84;;;9.37;100.00
39937;BME280;27803;42.740;23.340;2022-12-10T03:53:06;94780.59;;;9.45;100.00
39937;BME280;27803;42.740;23.340;2022-12-10T03:55:31;94787.00;;;9.50;100.00
39937;BME280;27803;42.740;23.340;2022-12-10T03:57:58;94779.97;;;9.50;100.00
39937;BME280;27803;42.740;23.340;2022-12-10T04:00:23;94768.09;;;9.54;100.00
39937;BME280;27803;42.740;23.340;2022-12-10T04:02:48;94770.94;;;9.46;100.00
39937;BME280;27803;42.740;23.340;2022-12-10T04:05:14;94742.69;;;9.23;100.00
39937;BME280;27803;42.740;23.340;2022-12-10T04:07:39;94773.97;;;9.36;100.00
39937;BME280;27803;42.740;23.340;2022-12-10T04:10:05;94769.34;;;9.38;100.00
39937;BME280;27803;42.740;23.340;2022-12-10T04:12:30;94737.69;;;9.22;100.00
39937;BME280;27803;42.740;23.340;2022-12-10T04:14:56;94737.28;;;9.25;100.00
39937;BME280;27803;42.740;23.340;2022-12-10T04:17:40;94766.53;;;9.40;100.00
39937;BME280;27803;42.740;23.340;2022-12-10T04:20:06;94780.78;;;9.51;100.00
39937;BME280;27803;42.740;23.340;2022-12-10T04:22:51;94755.72;;;9.30;100.00
39937;BME280;27803;42.740;23.340;2022-12-10T04:25:35;94766.53;;;9.46;100.00
39937;BME280;27803;42.740;23.340;2022-12-10T04:28:20;94772.31;;;9.55;100.00
39937;BME280;27803;42.740;23.340;2022-12-10T04:30:45;94768.72;;;9.56;100.00
39937;BME280;27803;42.740;23.340;2022-12-10T04:33:10;94732.00;;;9.44;100.00
39937;BME280;27803;42.740;23.340;2022-12-10T04:35:36;94771.66;;;9.73;100.00
39937;BME280;27803;42.740;23.340;2022-12-10T04:38:01;94747.63;;;9.58;100.00
39937;BME280;27803;42.740;23.340;2022-12-10T04:40:27;94776.06;;;9.79;100.00
39937;BME280;27803;42.740;23.340;2022-12-10T04:42:52;94772.63;;;9.78;100.00
39937;BME280;27803;42.740;23.340;2022-12-10T04:45:17;94769.25;;;9.71;100.00
39937;BME280;27803;42.740;23.340;2022-12-10T04:47:43;94757.19;;;9.77;100.00
39937;BME280;27803;42.740;23.340;2022-12-10T04:50:08;94723.91;;;9.59;100.00
39937;BME280;27803;42.740;23.340;2022-12-10T04:52:33;94740.09;;;9.81;100.00
39937;BME280;27803;42.740;23.340;2022-12-10T04:54:59;94717.47;;;9.62;100.00
39937;BME280;27803;42.740;23.340;2022-12-10T04:57:24;94754.38;;;9.72;100.00
39937;BME280;27803;42.740;23.340;2022-12-10T04:59:49;94767.06;;;9.68;100.00
39937;BME280;27803;42.740;23.340;2022-12-10T05:02:15;94775.28;;;9.72;100.00
39937;BME280;27803;42.740;23.340;2022-12-10T05:04:40;94770.63;;;9.81;100.00
39937;BME280;27803;42.740;23.340;2022-12-10T05:07:06;94744.38;;;9.69;100.00
39937;BME280;27803;42.740;23.340;2022-12-10T05:09:31;94726.72;;;9.58;100.00
39937;BME280;27803;42.740;23.340;2022-12-10T05:11:56;94721.16;;;9.48;100.00
39937;BME280;27803;42.740;23.340;2022-12-10T05:14:22;94717.94;;;9.45;100.00
39937;BME280;27803;42.740;23.340;2022-12-10T05:16:49;94737.72;;;9.73;100.00
39937;BME280;27803;42.740;23.340;2022-12-10T05:19:15;94750.78;;;9.73;100.00
39937;BME280;27803;42.740;23.340;2022-12-10T05:21:41;94725.91;;;9.64;100.00
39937;BME280;27803;42.740;23.340;2022-12-10T05:24:25;94750.72;;;9.86;100.00
39937;BME280;27803;42.740;23.340;2022-12-10T05:26:50;94738.28;;;9.82;100.00
39937;BME280;27803;42.740;23.340;2022-12-10T05:29:17;94685.81;;;9.52;100.00
39937;BME280;27803;42.740;23.340;2022-12-10T05:31:42;94739.06;;;9.82;100.00
39937;BME280;27803;42.740;23.340;2022-12-10T05:34:09;94713.97;;;9.81;100.00
39937;BME280;27803;42.740;23.340;2022-12-10T05:36:35;94721.41;;;9.84;100.00
39937;BME280;27803;42.740;23.340;2022-12-10T05:39:00;94699.75;;;9.77;100.00
39937;BME280;27803;42.740;23.340;2022-12-10T05:41:28;94705.31;;;9.87;100.00
39937;BME280;27803;42.740;23.340;2022-12-10T05:43:55;94739.34;;;10.05;100.00
39937;BME280;27803;42.740;23.340;2022-12-10T05:46:24;94706.31;;;9.86;100.00
39937;BME280;27803;42.740;23.340;2022-12-10T05:48:50;94706.91;;;9.88;100.00
39937;BME280;27803;42.740;23.340;2022-12-10T05:51:18;94744.75;;;10.10;100.00
39937;BME280;27803;42.740;23.340;2022-12-10T05:53:44;94719.94;;;9.95;100.00
39937;BME280;27803;42.740;23.340;2022-12-10T05:56:16;94779.47;;;10.24;100.00
39937;BME280;27803;42.740;23.340;2022-12-10T05:58:44;94727.31;;;10.04;100.00
39937;BME280;27803;42.740;23.340;2022-12-10T06:01:16;94763.00;;;10.17;100.00
39937;BME280;27803;42.740;23.340;2022-12-10T06:03:42;94725.75;;;9.97;100.00
39937;BME280;27803;42.740;23.340;2022-12-10T06:06:08;94767.03;;;10.20;100.00
39937;BME280;27803;42.740;23.340;2022-12-10T06:08:33;94754.63;;;10.08;100.00
39937;BME280;27803;42.740;23.340;2022-12-10T06:11:03;94748.91;;;10.25;100.00
39937;BME280;27803;42.740;23.340;2022-12-10T06:13:28;94765.81;;;10.16;100.00
39937;BME280;27803;42.740;23.340;2022-12-10T06:15:54;94773.66;;;10.22;100.00
39937;BME280;27803;42.740;23.340;2022-12-10T06:18:19;94735.94;;;10.05;100.00
39937;BME280;27803;42.740;23.340;2022-12-10T06:20:46;94754.56;;;10.22;100.00
39937;BME280;27803;42.740;23.340;2022-12-10T06:23:11;94731.34;;;10.00;100.00
39937;BME280;27803;42.740;23.340;2022-12-10T06:25:40;94749.09;;;10.30;100.00
39937;BME280;27803;42.740;23.340;2022-12-10T06:28:06;94748.03;;;10.37;100.00
39937;BME280;27803;42.740;23.340;2022-12-10T06:30:32;94715.16;;;10.23;100.00
39937;BME280;27803;42.740;23.340;2022-12-10T06:32:57;94752.81;;;10.40;100.00
39937;BME280;27803;42.740;23.340;2022-12-10T06:35:23;94718.38;;;10.19;100.00
39937;BME280;27803;42.740;23.340;2022-12-10T06:37:49;94743.47;;;10.51;100.00
39937;BME280;27803;42.740;23.340;2022-12-10T06:40:14;94738.25;;;10.51;100.00
39937;BME280;27803;42.740;23.340;2022-12-10T06:42:40;94748.72;;;10.51;100.00
39937;BME280;27803;42.740;23.340;2022-12-10T06:45:06;94753.72;;;10.53;100.00
39937;BME280;27803;42.740;23.340;2022-12-10T06:47:31;94764.34;;;10.58;100.00
39937;BME280;27803;42.740;23.340;2022-12-10T06:49:56;94727.13;;;10.37;100.00
39937;BME280;27803;42.740;23.340;2022-12-10T06:52:22;94765.78;;;10.54;100.00
39937;BME280;27803;42.740;23.340;2022-12-10T06:54:47;94759.28;;;10.63;100.00
39937;BME280;27803;42.740;23.340;2022-12-10T06:57:12;94761.41;;;10.72;100.00
39937;BME280;27803;42.740;23.340;2022-12-10T06:59:38;94739.00;;;10.58;100.00
39937;BME280;27803;42.740;23.340;2022-12-10T07:02:03;94734.38;;;10.60;100.00
39937;BME280;27803;42.740;23.340;2022-12-10T07:04:29;94764.53;;;10.88;100.00
39937;BME280;27803;42.740;23.340;2022-12-10T07:06:54;94734.41;;;10.79;100.00
39937;BME280;27803;42.740;23.340;2022-12-10T07:09:19;94765.16;;;11.08;100.00
39937;BME280;27803;42.740;23.340;2022-12-10T07:11:45;94748.72;;;11.01;100.00
39937;BME280;27803;42.740;23.340;2022-12-10T07:14:15;94751.03;;;11.09;100.00
39937;BME280;27803;42.740;23.340;2022-12-10T07:16:41;94770.63;;;11.25;100.00
39937;BME280;27803;42.740;23.340;2022-12-10T07:19:08;94764.00;;;11.22;100.00
39937;BME280;27803;42.740;23.340;2022-12-10T07:21:36;94766.63;;;11.22;100.00
39937;BME280;27803;42.740;23.340;2022-12-10T07:24:05;94746.91;;;11.20;100.00
39937;BME280;27803;42.740;23.340;2022-12-10T07:26:34;94749.19;;;11.34;100.00
39937;BME280;27803;42.740;23.340;2022-12-10T07:29:00;94728.81;;;11.18;100.00
39937;BME280;27803;42.740;23.340;2022-12-10T07:31:26;94740.44;;;11.22;100.00
39937;BME280;27803;42.740;23.340;2022-12-10T07:33:53;94714.84;;;11.06;100.00
39937;BME280;27803;42.740;23.340;2022-12-10T07:36:19;94753.25;;;11.30;100.00
39937;BME280;27803;42.740;23.340;2022-12-10T07:38:45;94719.22;;;11.12;100.00
39937;BME280;27803;42.740;23.340;2022-12-10T07:41:12;94727.00;;;11.37;100.00
39937;BME280;27803;42.740;23.340;2022-12-10T07:43:40;94732.53;;;11.47;100.00
39937;BME280;27803;42.740;23.340;2022-12-10T07:46:08;94716.47;;;11.44;100.00
39937;BME280;27803;42.740;23.340;2022-12-10T07:48:35;94737.25;;;11.57;100.00
39937;BME280;27803;42.740;23.340;2022-12-10T07:51:01;94701.19;;;11.40;100.00
39937;BME280;27803;42.740;23.340;2022-12-10T07:53:26;94709.03;;;11.59;100.00
39937;BME280;27803;42.740;23.340;2022-12-10T07:55:52;94715.94;;;11.90;100.00
39937;BME280;27803;42.740;23.340;2022-12-10T07:58:17;94694.03;;;11.84;100.00
39937;BME280;27803;42.740;23.340;2022-12-10T08:00:42;94717.13;;;12.17;100.00
39937;BME280;27803;42.740;23.340;2022-12-10T08:03:08;94709.31;;;12.29;100.00
39937;BME280;27803;42.740;23.340;2022-12-10T08:05:33;94721.66;;;12.40;100.00
39937;BME280;27803;42.740;23.340;2022-12-10T08:07:59;94695.50;;;12.22;100.00
39937;BME280;27803;42.740;23.340;2022-12-10T08:10:24;94716.28;;;12.35;100.00
39937;BME280;27803;42.740;23.340;2022-12-10T08:12:49;94726.75;;;12.35;100.00
39937;BME280;27803;42.740;23.340;2022-12-10T08:15:15;94708.50;;;12.28;100.00
39937;BME280;27803;42.740;23.340;2022-12-10T08:17:40;94695.06;;;12.13;100.00
39937;BME280;27803;42.740;23.340;2022-12-10T08:20:06;94733.91;;;12.28;100.00
39937;BME280;27803;42.740;23.340;2022-12-10T08:22:33;94703.81;;;12.19;100.00
39937;BME280;27803;42.740;23.340;2022-12-10T08:24:59;94738.16;;;12.29;100.00
39937;BME280;27803;42.740;23.340;2022-12-10T08:27:24;94716.78;;;12.14;100.00
39937;BME280;27803;42.740;23.340;2022-12-10T08:29:50;94714.63;;;12.11;100.00
39937;BME280;27803;42.740;23.340;2022-12-10T08:32:15;94707.91;;;12.15;100.00
39937;BME280;27803;42.740;23.340;2022-12-10T08:34:40;94727.53;;;12.24;100.00
39937;BME280;27803;42.740;23.340;2022-12-10T08:37:06;94705.03;;;12.04;100.00
39937;BME280;27803;42.740;23.340;2022-12-10T08:39:31;94719.75;;;12.17;100.00
39937;BME280;27803;42.740;23.340;2022-12-10T08:41:57;94719.78;;;12.29;100.00
39937;BME280;27803;42.740;23.340;2022-12-10T08:44:22;94719.03;;;12.40;100.00
39937;BME280;27803;42.740;23.340;2022-12-10T08:46:47;94695.88;;;12.37;100.00
39937;BME280;27803;42.740;23.340;2022-12-10T08:49:13;94714.34;;;12.42;100.00
39937;BME280;27803;42.740;23.340;2022-12-10T08:51:38;94718.00;;;12.41;100.00
39937;BME280;27803;42.740;23.340;2022-12-10T08:54:04;94708.41;;;12.35;100.00
39937;BME280;27803;42.740;23.340;2022-12-10T08:56:29;94673.47;;;11.99;100.00
39937;BME280;27803;42.740;23.340;2022-12-10T08:58:55;94675.41;;;12.04;100.00
39937;BME280;27803;42.740;23.340;2022-12-10T09:01:20;94661.75;;;12.02;100.00
39937;BME280;27803;42.740;23.340;2022-12-10T09:03:46;94696.78;;;12.31;100.00
39937;BME280;27803;42.740;23.340;2022-12-10T09:06:17;94687.69;;;12.45;100.00
39937;BME280;27803;42.740;23.340;2022-12-10T09:08:43;94669.78;;;12.54;100.00
39937;BME280;27803;42.740;23.340;2022-12-10T09:11:11;94687.16;;;12.78;100.00
39937;BME280;27803;42.740;23.340;2022-12-10T09:13:37;94685.31;;;12.67;100.00
39937;BME280;27803;42.740;23.340;2022-12-10T09:16:03;94692.97;;;12.92;100.00
39937;BME280;27803;42.740;23.340;2022-12-10T09:18:29;94692.59;;;13.12;100.00
39937;BME280;27803;42.740;23.340;2022-12-10T09:20:54;94689.06;;;13.29;100.00
39937;BME280;27803;42.740;23.340;2022-12-10T09:23:20;94701.84;;;13.38;100.00
39937;BME280;27803;42.740;23.340;2022-12-10T09:25:45;94700.72;;;13.33;100.00
39937;BME280;27803;42.740;23.340;2022-12-10T09:28:10;94699.06;;;13.56;100.00
39937;BME280;27803;42.740;23.340;2022-12-10T09:30:36;94665.09;;;13.38;100.00
39937;BME280;27803;42.740;23.340;2022-12-10T09:33:01;94675.19;;;13.57;100.00
39937;BME280;27803;42.740;23.340;2022-12-10T09:35:26;94656.31;;;13.72;100.00
39937;BME280;27803;42.740;23.340;2022-12-10T09:37:52;94688.09;;;13.87;100.00
39937;BME280;27803;42.740;23.340;2022-12-10T09:40:27;94663.63;;;13.70;100.00
39937;BME280;27803;42.740;23.340;2022-12-10T09:43:00;94659.59;;;13.79;100.00
39937;BME280;27803;42.740;23.340;2022-12-10T09:45:36;94692.22;;;14.12;100.00
39937;BME280;27803;42.740;23.340;2022-12-10T09:48:25;94661.34;;;13.90;100.00
39937;BME280;27803;42.740;23.340;2022-12-10T09:51:36;94664.50;;;14.21;100.00
39937;BME280;27803;42.740;23.340;2022-12-10T09:53:59;94662.72;;;14.10;100.00
39937;BME280;27803;42.740;23.340;2022-12-10T09:56:33;94628.00;;;14.08;100.00
39937;BME280;27803;42.740;23.340;2022-12-10T09:59:02;94627.03;;;14.14;100.00
39937;BME280;27803;42.740;23.340;2022-12-10T10:01:31;94658.97;;;14.51;100.00
39937;BME280;27803;42.740;23.340;2022-12-10T10:03:58;94618.72;;;14.50;100.00
39937;BME280;27803;42.740;23.340;2022-12-10T10:06:24;94654.97;;;14.82;100.00
39937;BME280;27803;42.740;23.340;2022-12-10T10:08:54;94656.22;;;14.96;100.00
39937;BME280;27803;42.740;23.340;2022-12-10T10:11:24;94642.22;;;15.12;100.00
39937;BME280;27803;42.740;23.340;2022-12-10T10:13:58;94675.13;;;15.32;100.00
39937;BME280;27803;42.740;23.340;2022-12-10T10:21:34;94662.69;;;15.71;100.00
39937;BME280;27803;42.740;23.340;2022-12-10T10:24:00;94662.50;;;15.77;100.00
39937;BME280;27803;42.740;23.340;2022-12-10T10:26:26;94663.25;;;15.73;100.00
39937;BME280;27803;42.740;23.340;2022-12-10T10:28:56;94663.75;;;15.97;100.00
39937;BME280;27803;42.740;23.340;2022-12-10T10:31:25;94651.06;;;15.93;100.00
39937;BME280;27803;42.740;23.340;2022-12-10T10:34:00;94605.44;;;15.66;100.00
39937;BME280;27803;42.740;23.340;2022-12-10T10:36:29;94621.81;;;15.68;100.00
39937;BME280;27803;42.740;23.340;2022-12-10T10:38:55;94610.41;;;15.62;100.00
39937;BME280;27803;42.740;23.340;2022-12-10T10:41:23;94582.13;;;15.53;100.00
39937;BME280;27803;42.740;23.340;2022-12-10T10:43:58;94613.97;;;15.73;100.00
39937;BME280;27803;42.740;23.340;2022-12-10T10:46:25;94606.88;;;15.52;100.00
39937;BME280;27803;42.740;23.340;2022-12-10T10:48:50;94613.94;;;15.24;100.00
39937;BME280;27803;42.740;23.340;2022-12-10T10:51:21;94598.06;;;15.19;100.00
39937;BME280;27803;42.740;23.340;2022-12-10T10:53:53;94623.44;;;15.25;100.00
39937;BME280;27803;42.740;23.340;2022-12-10T11:01:42;94626.81;;;15.43;100.00
39937;BME280;27803;42.740;23.340;2022-12-10T11:04:08;94587.78;;;15.18;100.00
39937;BME280;27803;42.740;23.340;2022-12-10T11:06:34;94572.94;;;15.34;100.00
39937;BME280;27803;42.740;23.340;2022-12-10T11:08:59;94576.06;;;15.30;100.00
39937;BME280;27803;42.740;23.340;2022-12-10T11:11:32;94616.06;;;15.49;100.00
39937;BME280;27803;42.740;23.340;2022-12-10T11:14:22;94572.47;;;15.37;100.00
39937;BME280;27803;42.740;23.340;2022-12-10T11:16:49;94571.34;;;15.33;100.00
39937;BME280;27803;42.740;23.340;2022-12-10T11:19:23;94549.50;;;15.32;100.00
39937;BME280;27803;42.740;23.340;2022-12-10T11:21:49;94572.56;;;15.47;100.00
39937;BME280;27803;42.740;23.340;2022-12-10T11:24:17;94536.50;;;15.25;100.00
39937;BME280;27803;42.740;23.340;2022-12-10T11:37:32;94512.91;;;15.36;100.00
39937;BME280;27803;42.740;23.340;2022-12-10T11:48:33;94538.66;;;15.55;100.00
39937;BME280;27803;42.740;23.340;2022-12-10T11:51:05;94512.50;;;15.49;100.00
39937;BME280;27803;42.740;23.340;2022-12-10T11:54:14;94518.81;;;15.48;100.00
39937;BME280;27803;42.740;23.340;2022-12-10T11:56:43;94529.63;;;15.46;100.00
39937;BME280;27803;42.740;23.340;2022-12-10T12:00:05;94522.53;;;15.79;100.00
39937;BME280;27803;42.740;23.340;2022-12-10T12:02:30;94512.69;;;15.69;100.00
39937;BME280;27803;42.740;23.340;2022-12-10T12:13:16;94513.69;;;15.63;100.00
39937;BME280;27803;42.740;23.340;2022-12-10T12:15:50;94505.25;;;15.61;100.00
39937;BME280;27803;42.740;23.340;2022-12-10T12:18:21;94491.94;;;15.46;100.00
39937;BME280;27803;42.740;23.340;2022-12-10T12:20:55;94470.25;;;15.39;100.00
39937;BME280;27803;42.740;23.340;2022-12-10T12:23:26;94445.50;;;15.40;100.00
39937;BME280;27803;42.740;23.340;2022-12-10T12:25:58;94458.34;;;15.58;100.00
39937;BME280;27803;42.740;23.340;2022-12-10T12:28:31;94459.81;;;15.22;100.00
39937;BME280;27803;42.740;23.340;2022-12-10T12:31:09;94460.38;;;15.24;100.00
39937;BME280;27803;42.740;23.340;2022-12-10T12:33:43;94462.81;;;15.30;100.00
39937;BME280;27803;42.740;23.340;2022-12-10T12:36:25;94436.16;;;15.27;100.00
39937;BME280;27803;42.740;23.340;2022-12-10T12:39:13;94408.31;;;15.36;100.00
39937;BME280;27803;42.740;23.340;2022-12-10T12:46:56;94402.63;;;15.49;100.00
39937;BME280;27803;42.740;23.340;2022-12-10T12:49:27;94423.09;;;15.69;100.00
39937;BME280;27803;42.740;23.340;2022-12-10T12:52:00;94422.53;;;15.67;100.00
39937;BME280;27803;42.740;23.340;2022-12-10T12:54:26;94404.72;;;15.47;100.00
39937;BME280;27803;42.740;23.340;2022-12-10T12:59:58;94445.78;;;15.75;100.00
39937;BME280;27803;42.740;23.340;2022-12-10T13:05:18;94418.84;;;15.68;100.00
39937;BME280;27803;42.740;23.340;2022-12-10T13:08:15;94421.00;;;15.71;100.00
39937;BME280;27803;42.740;23.340;2022-12-10T13:10:50;94412.38;;;15.49;100.00
39937;BME280;27803;42.740;23.340;2022-12-10T13:15:55;94423.84;;;15.33;100.00
39937;BME280;27803;42.740;23.340;2022-12-10T13:18:33;94388.38;;;15.13;100.00
39937;BME280;27803;42.740;23.340;2022-12-10T13:21:26;94417.97;;;15.25;100.00
39937;BME280;27803;42.740;23.340;2022-12-10T13:23:54;94418.56;;;15.33;100.00
39937;BME280;27803;42.740;23.340;2022-12-10T13:26:30;94396.50;;;15.39;100.00
39937;BME280;27803;42.740;23.340;2022-12-10T13:29:12;94370.84;;;15.29;100.00
39937;BME280;27803;42.740;23.340;2022-12-10T13:31:39;94386.06;;;15.22;100.00
39937;BME280;27803;42.740;23.340;2022-12-10T13:34:20;94353.03;;;15.09;100.00
39937;BME280;27803;42.740;23.340;2022-12-10T13:39:19;94373.75;;;15.27;100.00
39937;BME280;27803;42.740;23.340;2022-12-10T13:45:03;94377.22;;;15.33;100.00
39937;BME280;27803;42.740;23.340;2022-12-10T13:49:59;94355.75;;;15.19;100.00
39937;BME280;27803;42.740;23.340;2022-12-10T14:03:52;94384.41;;;15.11;100.00
39937;BME280;27803;42.740;23.340;2022-12-10T14:06:24;94371.13;;;15.01;100.00
39937;BME280;27803;42.740;23.340;2022-12-10T14:09:00;94373.03;;;15.05;100.00
39937;BME280;27803;42.740;23.340;2022-12-10T14:11:43;94326.50;;;14.84;100.00
39937;BME280;27803;42.740;23.340;2022-12-10T14:14:13;94347.50;;;14.79;100.00
39937;BME280;27803;42.740;23.340;2022-12-10T14:16:40;94325.31;;;14.70;100.00
39937;BME280;27803;42.740;23.340;2022-12-10T14:19:09;94341.97;;;15.07;100.00